createdAt,value
2022-10-28T00:01:08.752Z,13.53
2022-10-28T00:03:39.185Z,13.49
2022-10-28T00:06:08.564Z,13.42
2022-10-28T00:08:35.407Z,13.38
2022-10-28T00:11:13.506Z,13.33
2022-10-28T00:13:41.286Z,13.29
2022-10-28T00:16:16.364Z,13.24
2022-10-28T00:18:43.381Z,13.22
2022-10-28T00:21:19.253Z,13.20
2022-10-28T00:23:45.822Z,13.14
2022-10-28T00:26:32.265Z,13.12
2022-10-28T00:29:01.370Z,13.08
2022-10-28T00:31:30.496Z,13.07
2022-10-28T00:33:59.180Z,13.06
2022-10-28T00:36:28.522Z,13.04
2022-10-28T00:38:56.364Z,13.02
2022-10-28T00:41:31.205Z,13.02
2022-10-28T00:44:03.989Z,13.03
2022-10-28T00:46:45.720Z,13.02
2022-10-28T00:49:16.715Z,13.02
2022-10-28T00:51:46.218Z,12.98
2022-10-28T00:54:13.521Z,12.95
2022-10-28T00:56:46.226Z,12.95
2022-10-28T00:59:18.650Z,12.92
2022-10-28T01:01:45.658Z,12.90
2022-10-28T01:04:12.099Z,12.87
2022-10-28T01:06:39.081Z,12.86
2022-10-28T01:09:05.641Z,12.81
2022-10-28T01:11:56.713Z,12.78
2022-10-28T01:14:53.649Z,12.75
2022-10-28T01:17:35.202Z,12.75
2022-10-28T01:20:39.663Z,12.74
2022-10-28T01:23:14.035Z,12.73
2022-10-28T01:26:19.153Z,12.68
2022-10-28T01:28:58.892Z,12.64
2022-10-28T01:31:37.671Z,12.61
2022-10-28T01:34:16.714Z,12.61
2022-10-28T01:37:08.157Z,12.59
2022-10-28T01:40:05.617Z,12.56
2022-10-28T01:42:35.551Z,12.51
2022-10-28T01:45:29.479Z,12.45
2022-10-28T01:48:19.170Z,12.38
2022-10-28T01:50:56.065Z,12.38
2022-10-28T01:53:27.457Z,12.37
2022-10-28T01:55:56.913Z,12.36
2022-10-28T01:58:28.529Z,12.29
2022-10-28T02:00:56.533Z,12.23
2022-10-28T02:03:23.131Z,12.24
2022-10-28T02:05:53.429Z,12.21
2022-10-28T02:08:19.986Z,12.19
2022-10-28T02:11:01.147Z,12.13
2022-10-28T02:13:39.367Z,12.13
2022-10-28T02:16:05.781Z,12.13
2022-10-28T02:18:53.341Z,12.13
2022-10-28T02:21:50.211Z,12.07
2022-10-28T02:24:32.932Z,12.00
2022-10-28T02:27:13.775Z,11.98
2022-10-28T02:29:55.010Z,11.93
2022-10-28T02:32:27.261Z,11.90
2022-10-28T02:34:56.755Z,11.87
2022-10-28T02:37:33.541Z,11.83
2022-10-28T02:40:08.419Z,11.79
2022-10-28T02:42:44.649Z,11.78
2022-10-28T02:45:18.975Z,11.78
2022-10-28T02:47:51.805Z,11.77
2022-10-28T02:50:22.087Z,11.76
2022-10-28T02:52:51.519Z,11.76
2022-10-28T02:55:20.705Z,11.75
2022-10-28T02:57:49.162Z,11.74
2022-10-28T03:00:19.559Z,11.69
2022-10-28T03:02:46.300Z,11.67
2022-10-28T03:05:13.770Z,11.66
2022-10-28T03:07:40.901Z,11.64
2022-10-28T03:10:07.778Z,11.62
2022-10-28T03:12:34.144Z,11.62
2022-10-28T03:15:01.648Z,11.59
2022-10-28T03:17:28.205Z,11.57
2022-10-28T03:19:54.745Z,11.59
2022-10-28T03:22:21.060Z,11.58
2022-10-28T03:24:47.437Z,11.57
2022-10-28T03:27:13.762Z,11.58
2022-10-28T03:29:44.820Z,11.59
2022-10-28T03:32:12.505Z,11.59
2022-10-28T03:34:38.894Z,11.56
2022-10-28T03:37:05.247Z,11.55
2022-10-28T03:39:31.610Z,11.54
2022-10-28T03:41:57.994Z,11.51
2022-10-28T03:44:24.354Z,11.49
2022-10-28T03:46:50.706Z,11.48
2022-10-28T03:49:18.073Z,11.49
2022-10-28T03:51:44.410Z,11.52
2022-10-28T03:54:10.760Z,11.48
2022-10-28T03:56:39.509Z,11.46
2022-10-28T03:59:09.770Z,11.46
2022-10-28T04:01:36.501Z,11.42
2022-10-28T04:04:03.302Z,11.39
2022-10-28T04:06:30.093Z,11.39
2022-10-28T04:08:56.513Z,11.43
2022-10-28T04:11:23.036Z,11.49
2022-10-28T04:13:49.399Z,11.57
2022-10-28T04:16:15.732Z,11.69
2022-10-28T04:18:42.077Z,11.78
2022-10-28T04:21:08.431Z,11.86
2022-10-28T04:23:34.797Z,11.91
2022-10-28T04:26:01.157Z,11.95
2022-10-28T04:28:27.733Z,11.97
2022-10-28T04:30:54.102Z,11.92
2022-10-28T04:33:20.680Z,11.88
2022-10-28T04:35:47.071Z,11.85
2022-10-28T04:38:14.225Z,11.78
2022-10-28T04:40:40.888Z,11.74
2022-10-28T04:43:09.718Z,11.71
2022-10-28T04:45:37.373Z,11.67
2022-10-28T04:48:03.949Z,11.72
2022-10-28T04:50:30.460Z,11.71
2022-10-28T04:52:56.867Z,11.70
2022-10-28T04:55:23.269Z,11.69
2022-10-28T04:58:00.436Z,11.74
2022-10-28T05:00:28.723Z,11.78
2022-10-28T05:02:55.307Z,11.81
2022-10-28T05:05:22.328Z,11.82
2022-10-28T05:07:48.920Z,11.88
2022-10-28T05:10:16.296Z,11.89
2022-10-28T05:12:43.203Z,11.84
2022-10-28T05:15:11.203Z,11.88
2022-10-28T05:17:41.401Z,11.92
2022-10-28T05:20:08.724Z,11.95
2022-10-28T05:22:35.105Z,12.00
2022-10-28T05:25:01.678Z,12.03
2022-10-28T05:27:28.060Z,12.10
2022-10-28T05:29:54.605Z,12.19
2022-10-28T05:32:20.939Z,12.24
2022-10-28T05:34:47.269Z,12.29
2022-10-28T05:37:13.599Z,12.32
2022-10-28T05:39:39.922Z,12.32
2022-10-28T05:42:06.256Z,12.33
2022-10-28T05:44:32.585Z,12.35
2022-10-28T05:46:59.114Z,12.35
2022-10-28T05:49:26.570Z,12.35
2022-10-28T05:51:53.611Z,12.34
2022-10-28T05:54:21.008Z,12.34
2022-10-28T05:56:47.407Z,12.31
2022-10-28T05:59:15.823Z,12.29
2022-10-28T08:12:47.324Z,15.14
2022-10-28T08:46:56.103Z,16.66
2022-10-28T08:49:24.108Z,16.70
2022-10-28T08:51:58.285Z,16.72
2022-10-28T08:54:33.971Z,16.76
2022-10-28T08:57:02.792Z,16.80
2022-10-28T08:59:39.366Z,16.87
2022-10-28T09:02:18.474Z,16.95
2022-10-28T09:04:46.668Z,17.01
2022-10-28T09:07:24.240Z,17.07
2022-10-28T09:09:53.463Z,17.14
2022-10-28T09:12:23.180Z,17.28
2022-10-28T09:15:14.238Z,17.40
2022-10-28T09:18:04.140Z,17.49
2022-10-28T09:21:01.429Z,17.55
2022-10-28T09:23:33.696Z,17.60
2022-10-28T09:26:29.334Z,17.65
2022-10-28T09:29:14.712Z,17.71
2022-10-28T09:31:52.360Z,17.79
2022-10-28T09:34:56.465Z,17.90
2022-10-28T09:37:29.237Z,17.93
2022-10-28T09:40:02.614Z,17.92
2022-10-28T09:42:32.637Z,17.94
2022-10-28T09:45:12.003Z,17.91
2022-10-28T09:47:50.704Z,17.87
2022-10-28T09:50:20.789Z,17.88
2022-10-28T09:53:12.477Z,17.91
2022-10-28T09:55:38.972Z,17.90
2022-10-28T09:58:05.597Z,17.89
2022-10-28T10:00:32.499Z,18.01
2022-10-28T10:02:59.263Z,18.15
2022-10-28T10:05:26.663Z,18.27
2022-10-28T10:07:57.676Z,18.35
2022-10-28T10:10:47.880Z,18.40
2022-10-28T10:13:19.968Z,18.46
2022-10-28T10:15:59.796Z,18.55
2022-10-28T10:18:30.237Z,18.65
2022-10-28T10:21:00.085Z,18.76
2022-10-28T10:23:31.315Z,18.93
2022-10-28T10:26:11.284Z,19.06
2022-10-28T10:28:43.975Z,19.11
2022-10-28T10:31:19.868Z,19.11
2022-10-28T10:33:50.924Z,19.18
2022-10-28T10:36:23.595Z,19.24
2022-10-28T10:38:57.931Z,19.39
2022-10-28T10:41:38.818Z,19.53
2022-10-28T10:44:30.431Z,19.66
2022-10-28T10:47:04.902Z,19.76
2022-10-28T10:49:33.634Z,19.78
2022-10-28T10:52:01.230Z,19.80
2022-10-28T10:54:31.048Z,19.83
2022-10-28T10:57:16.737Z,19.88
2022-10-28T10:59:53.356Z,19.97
2022-10-28T11:02:35.024Z,20.06
2022-10-28T11:05:10.213Z,20.13
2022-10-28T11:07:45.047Z,20.18
2022-10-28T11:10:32.364Z,20.18
2022-10-28T11:13:04.277Z,20.19
2022-10-28T11:15:32.477Z,20.16
2022-10-28T11:18:21.309Z,20.18
2022-10-28T11:20:58.429Z,20.21
2022-10-28T11:23:51.126Z,20.20
2022-10-28T11:26:19.631Z,20.19
2022-10-28T11:28:55.504Z,20.22
2022-10-28T11:31:40.347Z,20.27
2022-10-28T11:34:34.475Z,20.29
2022-10-28T11:37:35.812Z,20.34
2022-10-28T11:40:13.905Z,20.37
2022-10-28T11:43:17.212Z,20.48
2022-10-28T11:46:02.283Z,20.51
2022-10-28T11:48:44.315Z,20.59
2022-10-28T11:51:34.036Z,20.72
2022-10-28T11:54:13.094Z,20.79
2022-10-28T11:56:54.619Z,20.82
2022-10-28T11:59:35.016Z,20.83
2022-10-28T12:02:43.467Z,20.84
2022-10-28T12:05:18.618Z,20.89
2022-10-28T12:08:15.592Z,20.97
2022-10-28T12:10:56.571Z,21.06
2022-10-28T12:13:32.169Z,21.08
2022-10-28T12:16:09.896Z,21.08
2022-10-28T12:18:53.658Z,21.07
2022-10-28T12:21:41.541Z,21.08
2022-10-28T12:24:15.293Z,21.10
2022-10-28T12:26:46.461Z,21.11
2022-10-28T12:29:37.222Z,21.06
2022-10-28T12:32:05.926Z,21.04
2022-10-28T12:34:48.784Z,21.08
2022-10-28T12:37:24.141Z,21.03
2022-10-28T12:40:08.048Z,20.99
2022-10-28T12:42:39.667Z,20.95
2022-10-28T12:45:13.179Z,20.87
2022-10-28T12:47:46.683Z,20.79
2022-10-28T12:50:39.211Z,20.75
2022-10-28T12:53:05.569Z,20.69
2022-10-28T12:55:44.246Z,20.67
2022-10-28T12:58:17.447Z,20.67
2022-10-28T13:00:49.092Z,20.67
2022-10-28T13:03:16.102Z,20.68
2022-10-28T13:06:10.870Z,20.60
2022-10-28T13:08:52.580Z,20.57
2022-10-28T13:11:50.940Z,20.54
2022-10-28T13:14:39.054Z,20.50
2022-10-28T13:17:27.627Z,20.46
2022-10-28T13:20:16.620Z,20.40
2022-10-28T13:22:53.646Z,20.40
2022-10-28T13:25:45.660Z,20.40
2022-10-28T13:28:17.873Z,20.38
2022-10-28T13:30:56.878Z,20.34
2022-10-28T13:33:26.246Z,20.34
2022-10-28T13:35:55.261Z,20.36
2022-10-28T13:38:26.353Z,20.40
2022-10-28T13:43:48.811Z,20.39
2022-10-28T13:46:54.108Z,20.38
2022-10-28T13:49:30.520Z,20.44
2022-10-28T13:52:07.420Z,20.39
2022-10-28T13:54:42.811Z,20.32
2022-10-28T13:57:14.006Z,20.30
2022-10-28T13:59:57.333Z,20.34
2022-10-28T14:02:37.392Z,20.32
2022-10-28T14:05:09.617Z,20.29
2022-10-28T14:07:40.768Z,20.25
2022-10-28T14:10:21.317Z,20.23
2022-10-28T14:13:19.028Z,20.24
2022-10-28T14:15:49.510Z,20.26
2022-10-28T14:21:05.273Z,20.23
2022-10-28T14:23:36.372Z,20.21
2022-10-28T14:26:05.782Z,20.20
2022-10-28T14:28:32.215Z,20.20
2022-10-28T14:31:14.516Z,20.19
2022-10-28T14:33:44.043Z,20.18
2022-10-28T14:36:19.696Z,20.17
2022-10-28T14:38:58.379Z,20.10
2022-10-28T14:41:51.221Z,20.02
2022-10-28T14:44:47.508Z,19.98
2022-10-28T14:47:37.630Z,19.96
2022-10-28T14:50:16.701Z,19.88
2022-10-28T14:52:44.273Z,19.84
2022-10-28T14:55:24.006Z,19.77
2022-10-28T14:57:50.681Z,19.69
2022-10-28T15:00:20.076Z,19.62
2022-10-28T15:02:47.156Z,19.57
2022-10-28T15:05:17.154Z,19.54
2022-10-28T15:07:46.833Z,19.50
2022-10-28T15:10:25.864Z,19.48
2022-10-28T15:12:54.401Z,19.45
2022-10-28T15:15:23.951Z,19.41
2022-10-28T15:17:51.192Z,19.38
2022-10-28T15:20:23.577Z,19.34
2022-10-28T15:22:50.996Z,19.29
2022-10-28T15:25:20.404Z,19.25
2022-10-28T15:27:50.851Z,19.23
2022-10-28T15:30:18.828Z,19.21
2022-10-28T15:32:45.285Z,19.17
2022-10-28T15:35:26.844Z,19.11
2022-10-28T15:37:54.672Z,19.06
2022-10-28T15:40:34.504Z,19.02
2022-10-28T15:43:02.653Z,19.00
2022-10-28T15:45:39.715Z,18.99
2022-10-28T15:48:14.668Z,18.95
2022-10-28T15:50:41.474Z,18.91
2022-10-28T15:53:10.786Z,18.86
2022-10-28T15:56:02.799Z,18.85
2022-10-28T15:58:35.726Z,18.80
2022-10-28T16:01:02.452Z,18.74
2022-10-28T16:03:47.411Z,18.71
2022-10-28T16:06:39.975Z,18.68
2022-10-28T16:09:19.503Z,18.64
2022-10-28T16:11:51.276Z,18.63
2022-10-28T16:14:32.375Z,18.59
2022-10-28T16:17:23.621Z,18.54
2022-10-28T16:20:18.344Z,18.51
2022-10-28T16:22:46.465Z,18.42
2022-10-28T16:25:18.866Z,18.36
2022-10-28T16:27:45.307Z,18.32
2022-10-28T16:30:11.991Z,18.27
2022-10-28T16:32:49.930Z,18.26
2022-10-28T16:35:21.554Z,18.24
2022-10-28T16:37:55.584Z,18.21
2022-10-28T16:43:16.060Z,18.19
2022-10-28T16:45:42.472Z,18.19
2022-10-28T16:48:12.665Z,18.19
2022-10-28T16:50:41.168Z,18.19
2022-10-28T16:53:11.744Z,18.17
2022-10-28T16:55:38.311Z,18.17
2022-10-28T16:58:04.969Z,18.18
2022-10-28T17:00:31.315Z,18.17
2022-10-28T17:02:57.806Z,18.16
2022-10-28T17:05:24.382Z,18.14
2022-10-28T17:07:51.128Z,18.12
2022-10-28T17:10:17.894Z,18.12
2022-10-28T17:12:44.328Z,18.08
2022-10-28T17:15:10.895Z,18.05
2022-10-28T17:17:37.525Z,18.00
2022-10-28T17:20:04.399Z,17.96
2022-10-28T17:22:31.130Z,17.92
2022-10-28T17:24:57.533Z,17.88
2022-10-28T17:27:24.080Z,17.85
2022-10-28T17:29:50.561Z,17.79
2022-10-28T17:32:17.050Z,17.74
2022-10-28T17:34:43.499Z,17.71
2022-10-28T17:37:10.363Z,17.65
2022-10-28T17:39:37.771Z,17.60
2022-10-28T17:42:04.277Z,17.55
2022-10-28T17:44:30.862Z,17.46
2022-10-28T17:46:57.467Z,17.41
2022-10-28T17:49:23.885Z,17.37
2022-10-28T17:51:51.117Z,17.34
2022-10-28T17:54:17.555Z,17.30
2022-10-28T17:56:45.261Z,17.27
2022-10-28T17:59:11.686Z,17.24
2022-10-28T18:01:38.235Z,17.17
2022-10-28T18:04:06.057Z,17.13
2022-10-28T18:06:32.528Z,17.11
2022-10-28T18:08:58.864Z,17.10
2022-10-28T18:11:27.250Z,17.09
2022-10-28T18:13:55.840Z,17.10
2022-10-28T18:16:25.269Z,17.07
2022-10-28T18:18:53.229Z,17.04
2022-10-28T18:21:22.694Z,17.01
2022-10-28T18:23:53.135Z,16.97
2022-10-28T18:26:20.714Z,16.92
2022-10-28T18:28:48.818Z,16.88
2022-10-28T18:31:20.185Z,16.85
2022-10-28T18:33:47.259Z,16.82
2022-10-28T18:36:19.762Z,16.80
2022-10-28T18:38:46.464Z,16.78
2022-10-28T18:41:21.433Z,16.78
2022-10-28T18:44:00.682Z,16.76
2022-10-28T18:46:29.131Z,16.72
2022-10-28T18:48:56.297Z,16.69
2022-10-28T18:51:23.289Z,16.64
2022-10-28T18:53:50.408Z,16.61
2022-10-28T18:56:22.167Z,16.57
2022-10-28T18:58:51.340Z,16.55
2022-10-28T19:01:23.012Z,16.46
2022-10-28T19:03:54.365Z,16.36
2022-10-28T19:06:21.921Z,16.32
2022-10-28T19:08:56.159Z,16.26
2022-10-28T19:11:30.099Z,16.23
2022-10-28T19:14:02.803Z,16.16
2022-10-28T19:16:31.180Z,16.10
2022-10-28T19:18:58.652Z,16.07
2022-10-28T19:21:25.787Z,16.05
2022-10-28T19:23:52.477Z,15.97
2022-10-28T19:26:19.506Z,15.92
2022-10-28T19:28:47.956Z,15.82
2022-10-28T19:31:16.778Z,15.77
2022-10-28T19:33:44.415Z,15.72
2022-10-28T19:36:18.676Z,15.66
2022-10-28T19:38:46.623Z,15.62
2022-10-28T19:41:18.253Z,15.55
2022-10-28T19:43:45.469Z,15.54
2022-10-28T19:46:18.848Z,15.52
2022-10-28T19:48:47.392Z,15.48
2022-10-28T19:51:15.979Z,15.46
2022-10-28T19:53:51.253Z,15.45
2022-10-28T19:56:19.450Z,15.42
2022-10-28T19:58:47.189Z,15.38
2022-10-28T20:01:14.361Z,15.35
2022-10-28T20:03:45.001Z,15.32
2022-10-28T20:06:14.919Z,15.30
2022-10-28T20:08:49.492Z,15.26
2022-10-28T20:11:21.338Z,15.22
2022-10-28T20:13:53.032Z,15.19
2022-10-28T20:16:19.544Z,15.13
2022-10-28T20:18:45.981Z,15.09
2022-10-28T20:21:17.276Z,15.07
2022-10-28T20:23:45.853Z,15.04
2022-10-28T20:26:13.278Z,15.03
2022-10-28T20:28:40.035Z,15.01
2022-10-28T20:31:15.146Z,14.93
2022-10-28T20:33:43.519Z,14.83
2022-10-28T20:36:40.746Z,14.76
2022-10-28T20:39:10.297Z,14.76
2022-10-28T20:41:38.554Z,14.72
2022-10-28T20:44:06.015Z,14.71
2022-10-28T20:46:33.289Z,14.66
2022-10-28T20:49:00.784Z,14.61
2022-10-28T20:51:29.304Z,14.59
2022-10-28T20:53:56.004Z,14.54
2022-10-28T20:56:28.117Z,14.46
2022-10-28T20:58:55.879Z,14.39
2022-10-28T21:01:24.970Z,14.32
2022-10-28T21:04:00.376Z,14.30
2022-10-28T21:06:27.969Z,14.26
2022-10-28T21:08:55.151Z,14.24
2022-10-28T21:11:23.419Z,14.21
2022-10-28T21:13:54.488Z,14.15
2022-10-28T21:16:22.129Z,14.10
2022-10-28T21:18:50.009Z,14.01
2022-10-28T21:21:16.946Z,13.93
2022-10-28T21:23:43.760Z,13.90
2022-10-28T21:26:11.866Z,13.88
2022-10-28T21:28:41.300Z,13.82
2022-10-28T21:31:12.925Z,13.74
2022-10-28T21:33:40.927Z,13.65
2022-10-28T21:36:13.819Z,13.58
2022-10-28T21:38:40.358Z,13.53
2022-10-28T21:41:12.154Z,13.51
2022-10-28T21:43:41.059Z,13.47
2022-10-28T21:46:08.260Z,13.44
2022-10-28T21:48:35.856Z,13.41
2022-10-28T21:51:06.330Z,13.39
2022-10-28T21:53:36.831Z,13.37
2022-10-28T21:56:13.808Z,13.33
2022-10-28T21:58:43.014Z,13.29
2022-10-28T22:01:15.380Z,13.23
2022-10-28T22:03:42.175Z,13.22
2022-10-28T22:06:09.170Z,13.18
2022-10-28T22:08:35.760Z,13.15
2022-10-28T22:11:07.571Z,13.08
2022-10-28T22:13:34.481Z,13.04
2022-10-28T22:16:03.335Z,12.98
2022-10-28T22:18:30.660Z,12.96
2022-10-28T22:20:57.294Z,12.90
2022-10-28T22:23:23.652Z,12.81
2022-10-28T22:25:50.240Z,12.72
2022-10-28T22:28:16.579Z,12.71
2022-10-28T22:30:42.920Z,12.72
2022-10-28T22:33:09.284Z,12.69
2022-10-28T22:35:35.661Z,12.65
2022-10-28T22:38:02.303Z,12.63
2022-10-28T22:40:29.399Z,12.66
2022-10-28T22:42:55.804Z,12.65
2022-10-28T22:45:22.170Z,12.65
2022-10-28T22:47:49.373Z,12.65
2022-10-28T22:50:15.856Z,12.63
2022-10-28T22:52:42.306Z,12.56
2022-10-28T22:55:09.119Z,12.46
2022-10-28T22:57:35.761Z,12.42
2022-10-28T23:00:02.237Z,12.41
2022-10-28T23:02:30.669Z,12.38
2022-10-28T23:04:57.132Z,12.33
2022-10-28T23:07:23.752Z,12.31
2022-10-28T23:09:50.076Z,12.35
2022-10-28T23:12:16.426Z,12.33
2022-10-28T23:14:46.923Z,12.33
2022-10-28T23:17:13.564Z,12.30
2022-10-28T23:19:39.890Z,12.29
2022-10-28T23:22:06.257Z,12.27
2022-10-28T23:24:32.634Z,12.26
2022-10-28T23:27:01.841Z,12.24
2022-10-28T23:29:28.199Z,12.24
2022-10-28T23:31:54.639Z,12.22
2022-10-28T23:34:21.084Z,12.21
2022-10-28T23:36:53.819Z,12.14
2022-10-28T23:39:21.291Z,12.09
2022-10-28T23:41:48.016Z,12.08
2022-10-28T23:44:15.001Z,12.07
2022-10-28T23:46:41.676Z,12.05
2022-10-28T23:49:08.012Z,11.99
2022-10-28T23:51:34.363Z,11.90
2022-10-28T23:54:00.802Z,11.84
2022-10-28T23:56:27.352Z,11.85
2022-10-28T23:58:53.690Z,11.76
